createdAt,value
2023-05-28T00:00:43.537Z,53.18
2023-05-28T00:01:43.554Z,56.89
2023-05-28T00:02:43.649Z,56.26
2023-05-28T00:03:43.648Z,56.12
2023-05-28T00:04:43.524Z,56.44
2023-05-28T00:05:43.497Z,55.85
2023-05-28T00:06:43.525Z,55.93
2023-05-28T00:07:43.509Z,57.03
2023-05-28T00:08:43.491Z,57.11
2023-05-28T00:09:43.475Z,53.16
2023-05-28T00:10:43.526Z,57.96
2023-05-28T00:11:43.479Z,56.75
2023-05-28T00:12:43.533Z,55.58
2023-05-28T00:13:43.583Z,57.61
2023-05-28T00:14:43.655Z,56.68
2023-05-28T00:15:43.713Z,56.80
2023-05-28T00:16:43.816Z,54.15
2023-05-28T00:17:43.881Z,58.10
2023-05-28T00:18:43.912Z,56.88
2023-05-28T00:19:43.960Z,55.50
2023-05-28T00:20:44.253Z,54.27
2023-05-28T00:21:44.078Z,59.32
2023-05-28T00:22:44.133Z,54.16
2023-05-28T00:23:44.203Z,57.11
2023-05-28T00:24:44.244Z,58.11
2023-05-28T00:25:44.326Z,57.30
2023-05-28T00:26:44.410Z,57.23
2023-05-28T00:27:44.449Z,56.47
2023-05-28T00:28:44.523Z,57.50
2023-05-28T00:29:44.547Z,58.03
2023-05-28T00:30:44.600Z,58.84
2023-05-28T00:31:44.786Z,58.22
2023-05-28T00:32:44.804Z,57.83
2023-05-28T00:33:44.814Z,58.89
2023-05-28T00:34:44.892Z,57.35
2023-05-28T00:35:44.899Z,57.75
2023-05-28T00:36:44.981Z,59.30
2023-05-28T00:37:45.035Z,57.48
2023-05-28T00:38:46.028Z,57.28
2023-05-28T00:39:45.147Z,57.28
2023-05-28T00:40:45.248Z,58.82
2023-05-28T00:41:45.299Z,59.92
2023-05-28T00:42:45.314Z,57.30
2023-05-28T00:43:45.408Z,57.37
2023-05-28T00:44:45.493Z,58.46
2023-05-28T00:45:45.594Z,57.58
2023-05-28T00:46:45.611Z,57.62
2023-05-28T00:47:45.683Z,59.08
2023-05-28T00:48:45.738Z,59.43
2023-05-28T00:49:45.802Z,56.38
2023-05-28T00:50:45.859Z,57.08
2023-05-28T00:51:45.965Z,58.29
2023-05-28T00:52:46.006Z,56.57
2023-05-28T00:53:46.066Z,58.37
2023-05-28T00:54:46.121Z,57.31
2023-05-28T00:55:46.164Z,57.03
2023-05-28T00:56:46.246Z,56.91
2023-05-28T00:57:46.284Z,57.14
2023-05-28T00:58:46.376Z,58.75
2023-05-28T00:59:46.409Z,57.81
2023-05-28T01:00:46.475Z,58.94
2023-05-28T01:01:46.633Z,58.72
2023-05-28T01:02:46.720Z,58.00
2023-05-28T01:03:46.736Z,59.33
2023-05-28T01:04:46.719Z,56.84
2023-05-28T01:05:46.837Z,56.08
2023-05-28T01:06:46.892Z,57.14
2023-05-28T01:07:46.870Z,56.19
2023-05-28T01:08:46.946Z,58.21
2023-05-28T01:09:46.989Z,56.79
2023-05-28T01:10:47.043Z,58.36
2023-05-28T01:11:47.117Z,57.14
2023-05-28T01:12:47.188Z,57.27
2023-05-28T01:13:47.248Z,57.20
2023-05-28T01:14:47.278Z,57.63
2023-05-28T01:15:47.339Z,60.16
2023-05-28T01:16:47.469Z,56.93
2023-05-28T01:17:47.504Z,57.23
2023-05-28T01:18:47.515Z,56.97
2023-05-28T01:19:47.616Z,57.62
2023-05-28T01:20:47.764Z,59.64
2023-05-28T01:21:47.789Z,57.86
2023-05-28T01:22:47.749Z,56.67
2023-05-28T01:23:47.817Z,55.41
2023-05-28T01:24:47.877Z,55.53
2023-05-28T01:25:47.943Z,56.46
2023-05-28T01:26:47.992Z,55.84
2023-05-28T01:27:48.042Z,56.59
2023-05-28T01:28:48.071Z,55.73
2023-05-28T01:29:48.142Z,54.11
2023-05-28T01:30:48.255Z,54.22
2023-05-28T01:31:48.252Z,55.13
2023-05-28T01:32:48.335Z,56.56
2023-05-28T01:33:48.377Z,56.29
2023-05-28T01:34:48.407Z,56.60
2023-05-28T01:35:48.491Z,58.71
2023-05-28T01:36:48.571Z,58.05
2023-05-28T01:37:48.614Z,59.55
2023-05-28T01:38:48.663Z,58.57
2023-05-28T01:39:48.698Z,58.48
2023-05-28T01:40:48.796Z,57.15
2023-05-28T01:41:48.834Z,55.84
2023-05-28T01:42:48.918Z,56.53
2023-05-28T01:43:48.965Z,56.92
2023-05-28T01:44:49.032Z,59.01
2023-05-28T01:45:49.123Z,56.57
2023-05-28T01:46:49.285Z,56.39
2023-05-28T01:47:49.327Z,55.35
2023-05-28T01:48:49.302Z,56.95
2023-05-28T01:49:49.343Z,56.06
2023-05-28T01:50:49.424Z,58.82
2023-05-28T01:51:49.453Z,55.47
2023-05-28T01:52:49.539Z,57.10
2023-05-28T01:53:49.607Z,57.06
2023-05-28T01:54:49.637Z,58.43
2023-05-28T01:55:49.723Z,56.61
2023-05-28T01:56:49.767Z,57.95
2023-05-28T01:57:49.833Z,56.91
2023-05-28T01:58:49.937Z,56.34
2023-05-28T01:59:49.990Z,57.26
2023-05-28T02:00:50.063Z,55.35
2023-05-28T02:01:50.152Z,55.14
2023-05-28T02:02:50.276Z,56.01
2023-05-28T02:03:50.270Z,57.50
2023-05-28T02:04:50.319Z,57.45
2023-05-28T02:05:50.379Z,55.35
2023-05-28T02:06:50.405Z,58.03
2023-05-28T02:07:50.483Z,56.38
2023-05-28T02:08:50.524Z,56.59
2023-05-28T02:09:50.574Z,57.62
2023-05-28T02:10:50.622Z,58.14
2023-05-28T02:11:50.689Z,58.86
2023-05-28T02:12:50.655Z,57.12
2023-05-28T02:13:50.718Z,57.66
2023-05-28T02:14:50.716Z,57.18
2023-05-28T02:15:50.888Z,58.27
2023-05-28T02:16:50.891Z,56.38
2023-05-28T02:17:50.800Z,55.29
2023-05-28T02:18:50.808Z,57.57
2023-05-28T02:19:50.820Z,55.79
2023-05-28T02:20:50.928Z,56.78
2023-05-28T02:21:50.910Z,56.25
2023-05-28T02:22:50.890Z,57.18
2023-05-28T02:23:50.926Z,56.20
2023-05-28T02:24:50.938Z,55.54
2023-05-28T02:25:51.195Z,54.06
2023-05-28T02:26:51.035Z,53.57
2023-05-28T02:27:51.114Z,55.50
2023-05-28T02:28:51.140Z,55.04
2023-05-28T02:29:51.131Z,54.25
2023-05-28T02:30:51.238Z,56.03
2023-05-28T02:31:51.230Z,55.53
2023-05-28T02:32:51.301Z,56.33
2023-05-28T02:33:51.305Z,56.20
2023-05-28T02:34:51.374Z,53.54
2023-05-28T02:35:51.406Z,56.34
2023-05-28T02:36:51.476Z,57.29
2023-05-28T02:37:51.499Z,55.42
2023-05-28T02:38:51.498Z,55.71
2023-05-28T02:39:51.524Z,56.85
2023-05-28T02:40:51.573Z,56.58
2023-05-28T02:41:51.596Z,53.88
2023-05-28T02:42:51.621Z,55.98
2023-05-28T02:43:51.654Z,54.14
2023-05-28T02:44:51.706Z,53.72
2023-05-28T02:45:52.016Z,53.26
2023-05-28T02:46:51.820Z,56.33
2023-05-28T02:47:51.909Z,55.01
2023-05-28T02:48:51.942Z,55.14
2023-05-28T02:49:52.014Z,55.11
2023-05-28T02:50:52.040Z,52.86
2023-05-28T02:51:52.093Z,54.55
2023-05-28T02:52:52.151Z,54.26
2023-05-28T02:53:52.252Z,55.64
2023-05-28T02:54:52.241Z,53.01
2023-05-28T02:55:52.457Z,55.79
2023-05-28T02:56:52.316Z,54.66
2023-05-28T02:57:52.358Z,53.89
2023-05-28T02:58:52.385Z,54.71
2023-05-28T02:59:52.439Z,56.29
2023-05-28T03:00:52.514Z,52.87
2023-05-28T03:01:52.454Z,55.31
2023-05-28T03:02:52.531Z,54.50
2023-05-28T03:03:52.543Z,53.64
2023-05-28T03:04:52.552Z,53.53
2023-05-28T03:05:52.727Z,53.32
2023-05-28T03:06:52.633Z,55.15
2023-05-28T03:07:52.713Z,55.29
2023-05-28T03:08:52.743Z,54.96
2023-05-28T03:09:52.783Z,55.11
2023-05-28T03:10:52.821Z,53.86
2023-05-28T03:11:52.897Z,52.29
2023-05-28T03:12:52.948Z,54.81
2023-05-28T03:13:52.950Z,53.89
2023-05-28T03:14:53.019Z,53.44
2023-05-28T03:15:53.240Z,55.14
2023-05-28T03:16:53.147Z,52.53
2023-05-28T03:17:53.225Z,52.93
2023-05-28T03:18:53.250Z,53.30
2023-05-28T03:19:53.302Z,54.22
2023-05-28T03:20:53.391Z,54.42
2023-05-28T03:21:53.392Z,54.58
2023-05-28T03:22:53.435Z,53.76
2023-05-28T03:23:53.476Z,52.92
2023-05-28T03:24:53.552Z,53.26
2023-05-28T03:25:53.817Z,53.15
2023-05-28T03:26:53.594Z,54.77
2023-05-28T03:27:53.619Z,54.66
2023-05-28T03:28:53.702Z,53.66
2023-05-28T03:29:53.691Z,54.44
2023-05-28T03:30:53.701Z,54.05
2023-05-28T03:31:53.846Z,54.05
2023-05-28T03:32:53.765Z,54.57
2023-05-28T03:33:53.738Z,54.93
2023-05-28T03:34:53.757Z,53.65
2023-05-28T03:35:53.865Z,52.78
2023-05-28T03:36:53.774Z,53.15
2023-05-28T03:37:53.827Z,51.04
2023-05-28T03:38:53.830Z,54.47
2023-05-28T03:39:53.842Z,53.99
2023-05-28T03:40:53.847Z,53.14
2023-05-28T03:41:53.878Z,52.07
2023-05-28T03:42:53.904Z,52.38
2023-05-28T03:43:53.892Z,53.70
2023-05-28T03:44:53.878Z,54.01
2023-05-28T03:45:54.163Z,54.25
2023-05-28T03:46:54.011Z,53.68
2023-05-28T03:47:53.953Z,55.12
2023-05-28T03:48:53.934Z,52.33
2023-05-28T03:49:53.902Z,52.15
2023-05-28T03:50:53.923Z,50.95
2023-05-28T03:51:53.958Z,52.24
2023-05-28T03:52:53.984Z,52.30
2023-05-28T03:53:53.945Z,54.31
2023-05-28T03:54:54.014Z,53.67
2023-05-28T03:55:54.306Z,53.38
2023-05-28T03:56:53.979Z,53.67
2023-05-28T03:57:53.994Z,54.88
2023-05-28T03:58:53.997Z,54.31
2023-05-28T03:59:54.021Z,54.27
2023-05-28T04:00:54.048Z,52.26
2023-05-28T04:01:54.075Z,51.31
2023-05-28T04:02:54.214Z,53.22
2023-05-28T04:03:54.252Z,52.89
2023-05-28T04:04:54.246Z,53.20
2023-05-28T04:05:54.544Z,53.78
2023-05-28T04:06:54.241Z,52.39
2023-05-28T04:07:54.274Z,51.36
2023-05-28T04:08:54.328Z,53.99
2023-05-28T04:09:54.382Z,52.93
2023-05-28T04:10:54.428Z,53.56
2023-05-28T04:11:54.462Z,52.87
2023-05-28T04:12:54.486Z,51.06
2023-05-28T04:13:54.539Z,52.72
2023-05-28T04:14:54.529Z,53.77
2023-05-28T04:15:54.752Z,53.84
2023-05-28T04:16:54.608Z,53.39
2023-05-28T04:17:54.653Z,50.84
2023-05-28T04:18:54.626Z,52.58
2023-05-28T04:19:54.663Z,52.98
2023-05-28T04:20:54.672Z,52.80
2023-05-28T04:21:54.724Z,51.54
2023-05-28T04:22:54.713Z,50.58
2023-05-28T04:23:54.770Z,51.19
2023-05-28T04:24:54.835Z,52.30
2023-05-28T04:25:55.192Z,52.22
2023-05-28T04:26:54.917Z,52.68
2023-05-28T04:27:54.965Z,52.07
2023-05-28T04:28:55.014Z,52.63
2023-05-28T04:29:55.091Z,52.89
2023-05-28T04:30:55.009Z,53.43
2023-05-28T04:31:55.086Z,51.75
2023-05-28T04:32:55.128Z,51.83
2023-05-28T04:33:55.160Z,51.40
2023-05-28T04:34:55.188Z,52.04
2023-05-28T04:35:55.375Z,51.68
2023-05-28T04:36:55.252Z,50.61
2023-05-28T04:37:55.325Z,51.79
2023-05-28T04:38:55.391Z,52.13
2023-05-28T04:39:55.376Z,52.12
2023-05-28T04:40:55.455Z,51.48
2023-05-28T04:41:55.519Z,50.86
2023-05-28T04:42:55.566Z,50.77
2023-05-28T04:43:55.650Z,52.25
2023-05-28T04:44:55.686Z,53.19
2023-05-28T04:45:56.063Z,52.62
2023-05-28T04:46:55.840Z,53.89
2023-05-28T04:47:55.920Z,51.15
2023-05-28T04:48:55.965Z,53.57
2023-05-28T04:49:56.037Z,52.06
2023-05-28T04:50:56.108Z,52.21
2023-05-28T04:51:56.170Z,51.28
2023-05-28T04:52:56.207Z,52.70
2023-05-28T04:53:56.263Z,50.00
2023-05-28T04:54:56.350Z,52.91
2023-05-28T04:55:56.385Z,53.48
2023-05-28T04:56:56.488Z,53.35
2023-05-28T04:57:56.521Z,51.32
2023-05-28T04:58:56.560Z,50.00
2023-05-28T04:59:56.665Z,50.11
2023-05-28T05:00:56.725Z,52.24
2023-05-28T05:01:56.807Z,52.85
2023-05-28T05:02:56.896Z,52.93
2023-05-28T05:03:56.923Z,51.97
2023-05-28T05:04:56.964Z,52.78
2023-05-28T05:05:57.072Z,53.29
2023-05-28T05:06:57.094Z,54.39
2023-05-28T05:07:58.134Z,53.48
2023-05-28T05:08:57.220Z,53.50
2023-05-28T05:09:57.293Z,52.10
2023-05-28T05:10:57.414Z,52.31
2023-05-28T05:11:57.431Z,52.48
2023-05-28T05:12:57.491Z,52.08
2023-05-28T05:13:57.541Z,52.15
2023-05-28T05:14:57.614Z,55.14
2023-05-28T05:15:57.714Z,51.17
2023-05-28T05:16:57.735Z,53.35
2023-05-28T05:17:57.838Z,54.42
2023-05-28T05:18:57.880Z,54.03
2023-05-28T05:19:58.099Z,53.20
2023-05-28T05:20:57.991Z,52.94
2023-05-28T05:21:58.048Z,52.99
2023-05-28T05:22:58.185Z,53.09
2023-05-28T05:23:58.166Z,50.01
2023-05-28T05:24:58.222Z,53.22
2023-05-28T05:25:58.295Z,51.92
2023-05-28T05:26:58.361Z,52.46
2023-05-28T05:27:58.425Z,52.85
2023-05-28T05:28:58.486Z,51.86
2023-05-28T05:29:58.512Z,51.08
2023-05-28T05:30:58.599Z,50.91
2023-05-28T05:31:58.742Z,51.40
2023-05-28T05:32:58.819Z,52.32
2023-05-28T05:33:58.788Z,54.20
2023-05-28T05:34:58.847Z,52.38
2023-05-28T05:35:58.907Z,52.35
2023-05-28T05:36:58.969Z,54.10
2023-05-28T05:37:59.025Z,52.44
2023-05-28T05:38:59.131Z,52.76
2023-05-28T05:39:59.138Z,52.67
2023-05-28T05:40:59.210Z,54.02
2023-05-28T05:41:59.255Z,52.45
2023-05-28T05:42:59.308Z,52.14
2023-05-28T05:43:59.351Z,53.14
2023-05-28T05:44:59.363Z,53.81
2023-05-28T05:45:59.469Z,52.80
2023-05-28T05:46:59.489Z,53.90
2023-05-28T05:47:59.583Z,50.13
2023-05-28T05:48:59.604Z,53.78
2023-05-28T05:49:59.720Z,53.85
2023-05-28T05:50:59.752Z,53.33
2023-05-28T05:51:59.792Z,51.94
2023-05-28T05:52:59.871Z,52.87
2023-05-28T05:53:59.914Z,53.74
2023-05-28T05:54:59.990Z,53.45
2023-05-28T05:56:00.030Z,53.37
2023-05-28T05:57:00.109Z,54.04
2023-05-28T05:58:00.168Z,54.32
2023-05-28T05:59:00.203Z,54.07
2023-05-28T06:00:00.221Z,54.50
2023-05-28T06:01:00.302Z,55.12
2023-05-28T06:02:01.949Z,53.23
2023-05-28T06:03:00.382Z,53.54
2023-05-28T06:04:00.432Z,55.49
2023-05-28T06:05:00.536Z,54.11
2023-05-28T06:06:00.664Z,54.12
2023-05-28T06:07:00.652Z,51.56
2023-05-28T06:08:00.661Z,52.64
2023-05-28T06:09:00.703Z,54.40
2023-05-28T06:10:00.775Z,52.46
2023-05-28T06:11:00.823Z,52.92
2023-05-28T06:12:00.890Z,51.51
2023-05-28T06:13:00.945Z,51.86
2023-05-28T06:14:01.017Z,53.29
2023-05-28T06:15:01.139Z,55.53
2023-05-28T06:16:01.120Z,53.95
2023-05-28T06:17:01.233Z,53.59
2023-05-28T06:18:01.238Z,53.43
2023-05-28T06:19:01.293Z,53.78
2023-05-28T06:20:01.337Z,52.47
2023-05-28T06:21:01.367Z,53.06
2023-05-28T06:22:01.415Z,52.50
2023-05-28T06:23:01.484Z,52.80
2023-05-28T06:24:01.507Z,51.56
2023-05-28T06:25:01.569Z,52.77
2023-05-28T06:26:01.666Z,50.57
2023-05-28T06:27:01.740Z,52.38
2023-05-28T06:28:01.787Z,52.83
2023-05-28T06:29:01.825Z,55.53
2023-05-28T06:30:01.912Z,51.79
2023-05-28T06:31:01.972Z,53.13
2023-05-28T06:32:02.032Z,55.47
2023-05-28T06:33:02.121Z,52.81
2023-05-28T06:34:02.145Z,54.94
2023-05-28T06:35:02.211Z,52.91
2023-05-28T06:36:02.283Z,53.39
2023-05-28T06:37:02.307Z,54.32
2023-05-28T06:38:02.372Z,55.59
2023-05-28T06:39:02.454Z,53.28
2023-05-28T06:40:02.513Z,54.02
2023-05-28T06:41:02.576Z,53.28
2023-05-28T06:42:02.654Z,55.20
2023-05-28T06:43:02.727Z,52.83
2023-05-28T06:44:02.787Z,52.63
2023-05-28T06:45:02.848Z,54.35
2023-05-28T06:46:03.002Z,56.11
2023-05-28T06:47:03.003Z,53.59
2023-05-28T06:48:03.087Z,52.87
2023-05-28T06:49:03.146Z,52.96
2023-05-28T06:50:03.158Z,52.68
2023-05-28T06:51:03.261Z,52.91
2023-05-28T06:52:03.317Z,52.91
2023-05-28T06:53:03.367Z,54.60
2023-05-28T06:54:03.431Z,55.87
2023-05-28T06:55:03.473Z,54.42
2023-05-28T06:56:03.563Z,52.68
2023-05-28T06:57:03.637Z,52.45
2023-05-28T06:58:03.699Z,53.54
2023-05-28T06:59:03.754Z,53.11
2023-05-28T07:00:03.795Z,54.52
2023-05-28T07:01:03.859Z,53.86
2023-05-28T07:02:03.933Z,54.62
2023-05-28T07:03:03.967Z,55.99
2023-05-28T07:04:04.055Z,55.16
2023-05-28T07:05:04.054Z,54.03
2023-05-28T07:06:04.120Z,52.84
2023-05-28T07:07:04.163Z,54.19
2023-05-28T07:08:04.232Z,54.30
2023-05-28T07:09:04.245Z,53.25
2023-05-28T07:10:04.304Z,54.09
2023-05-28T07:11:04.339Z,53.31
2023-05-28T07:12:04.377Z,55.42
2023-05-28T07:13:04.447Z,55.42
2023-05-28T07:14:04.498Z,52.52
2023-05-28T07:15:04.525Z,51.98
2023-05-28T07:16:04.549Z,52.90
2023-05-28T07:17:04.576Z,53.54
2023-05-28T07:18:04.646Z,51.40
2023-05-28T07:19:04.683Z,54.42
2023-05-28T07:20:04.834Z,53.82
2023-05-28T07:21:04.784Z,53.05
2023-05-28T07:22:04.864Z,53.23
2023-05-28T07:23:04.869Z,54.28
2023-05-28T07:24:04.930Z,52.86
2023-05-28T07:25:04.951Z,51.14
2023-05-28T07:26:04.975Z,53.33
2023-05-28T07:27:05.031Z,54.37
2023-05-28T07:28:05.112Z,54.03
2023-05-28T07:29:05.176Z,53.71
2023-05-28T07:30:05.190Z,53.86
2023-05-28T07:31:05.218Z,51.25
2023-05-28T07:32:05.344Z,53.93
2023-05-28T07:33:05.356Z,51.02
2023-05-28T07:34:05.415Z,50.83
2023-05-28T07:35:05.471Z,52.49
2023-05-28T07:36:05.531Z,51.97
2023-05-28T07:37:05.578Z,51.48
2023-05-28T07:38:05.623Z,52.03
2023-05-28T07:39:05.648Z,51.49
2023-05-28T07:40:05.700Z,52.35
2023-05-28T07:41:05.741Z,53.74
2023-05-28T07:42:05.767Z,56.18
2023-05-28T07:43:05.798Z,53.86
2023-05-28T07:44:05.868Z,53.97
2023-05-28T07:45:05.863Z,54.14
2023-05-28T07:46:05.918Z,53.61
2023-05-28T07:47:05.991Z,54.30
2023-05-28T07:48:06.098Z,52.89
2023-05-28T07:49:06.066Z,53.97
2023-05-28T07:50:06.141Z,53.81
2023-05-28T07:51:06.150Z,53.68
2023-05-28T07:52:06.234Z,54.53
2023-05-28T07:53:06.270Z,52.92
2023-05-28T07:54:06.325Z,53.50
2023-05-28T07:55:06.392Z,53.40
2023-05-28T07:56:06.436Z,53.53
2023-05-28T07:57:06.520Z,52.79
2023-05-28T07:58:06.606Z,53.58
2023-05-28T07:59:06.673Z,53.43
2023-05-28T08:00:06.744Z,52.31
2023-05-28T08:01:06.779Z,53.49
2023-05-28T08:02:06.987Z,54.25
2023-05-28T08:03:07.052Z,54.81
2023-05-28T08:04:07.217Z,54.69
2023-05-28T08:05:07.047Z,53.65
2023-05-28T08:06:07.128Z,53.92
2023-05-28T08:07:07.189Z,52.39
2023-05-28T08:08:07.217Z,53.58
2023-05-28T08:09:07.265Z,56.10
2023-05-28T08:10:07.332Z,53.97
2023-05-28T08:11:07.387Z,53.57
2023-05-28T08:12:07.442Z,53.87
2023-05-28T08:13:07.508Z,54.02
2023-05-28T08:14:07.527Z,53.35
2023-05-28T08:15:07.527Z,53.12
2023-05-28T08:16:07.609Z,51.16
2023-05-28T08:17:07.578Z,52.51
2023-05-28T08:18:07.644Z,53.96
2023-05-28T08:19:07.656Z,53.25
2023-05-28T08:20:07.702Z,53.15
2023-05-28T08:21:07.653Z,54.07
2023-05-28T08:22:07.728Z,53.16
2023-05-28T08:23:07.675Z,54.61
2023-05-28T08:24:07.660Z,53.85
2023-05-28T08:25:07.689Z,52.77
2023-05-28T08:26:07.662Z,53.64
2023-05-28T08:27:07.667Z,54.79
2023-05-28T08:28:07.657Z,55.29
2023-05-28T08:29:07.679Z,53.01
2023-05-28T08:30:09.343Z,53.85
2023-05-28T08:31:07.693Z,54.30
2023-05-28T08:32:07.665Z,54.80
2023-05-28T08:33:07.687Z,54.30
2023-05-28T08:34:07.652Z,55.46
2023-05-28T08:35:07.673Z,54.11
2023-05-28T08:36:07.643Z,54.46
2023-05-28T08:37:07.755Z,53.78
2023-05-28T08:38:07.663Z,53.12
2023-05-28T08:39:07.674Z,54.18
2023-05-28T08:40:07.684Z,54.23
2023-05-28T08:41:07.677Z,53.42
2023-05-28T08:42:07.726Z,53.45
2023-05-28T08:43:07.703Z,52.99
2023-05-28T08:44:07.732Z,54.50
2023-05-28T08:45:07.837Z,52.82
2023-05-28T08:46:07.733Z,53.68
2023-05-28T08:47:07.764Z,52.69
2023-05-28T08:48:09.484Z,54.55
2023-05-28T08:49:07.739Z,54.56
2023-05-28T08:50:07.740Z,54.57
2023-05-28T08:51:07.718Z,54.31
2023-05-28T08:52:07.726Z,53.73
2023-05-28T08:53:07.716Z,54.85
2023-05-28T08:54:07.707Z,53.29
2023-05-28T08:55:07.726Z,54.78
2023-05-28T08:56:07.695Z,53.59
2023-05-28T08:57:07.685Z,54.28
2023-05-28T08:58:07.704Z,54.78
2023-05-28T08:59:07.690Z,56.45
2023-05-28T09:00:07.681Z,54.32
2023-05-28T09:01:07.748Z,55.55
2023-05-28T09:02:07.670Z,54.43
2023-05-28T09:03:07.789Z,55.00
2023-05-28T09:04:07.794Z,53.70
2023-05-28T09:05:07.607Z,54.58
2023-05-28T09:06:07.658Z,54.56
2023-05-28T09:07:07.655Z,54.48
2023-05-28T09:08:07.638Z,54.28
2023-05-28T09:09:07.617Z,54.92
2023-05-28T09:10:07.624Z,53.26
2023-05-28T09:11:07.584Z,52.65
2023-05-28T09:12:07.607Z,55.44
2023-05-28T09:13:07.605Z,53.47
2023-05-28T09:14:07.592Z,52.52
2023-05-28T09:15:07.572Z,53.30
2023-05-28T09:16:07.540Z,53.77
2023-05-28T09:17:07.575Z,54.00
2023-05-28T09:18:07.658Z,52.63
2023-05-28T09:19:07.542Z,53.36
2023-05-28T09:20:07.556Z,53.85
2023-05-28T09:21:07.540Z,55.91
2023-05-28T09:22:07.583Z,54.38
2023-05-28T09:23:07.839Z,53.35
2023-05-28T09:24:07.507Z,52.76
2023-05-28T09:25:07.495Z,54.41
2023-05-28T09:26:07.526Z,53.48
2023-05-28T09:27:07.485Z,53.55
2023-05-28T09:28:07.503Z,52.33
2023-05-28T09:29:07.504Z,54.50
2023-05-28T09:30:07.474Z,53.71
2023-05-28T09:31:07.543Z,53.70
2023-05-28T09:32:07.474Z,52.46
2023-05-28T09:33:07.470Z,53.72
2023-05-28T09:34:07.430Z,53.77
2023-05-28T09:35:07.426Z,54.09
2023-05-28T09:36:07.439Z,53.41
2023-05-28T09:37:07.425Z,53.81
2023-05-28T09:38:07.423Z,53.96
2023-05-28T09:39:07.398Z,53.20
2023-05-28T09:40:07.386Z,52.25
2023-05-28T09:41:07.416Z,54.67
2023-05-28T09:42:07.488Z,53.35
2023-05-28T09:43:07.405Z,52.67
2023-05-28T09:44:07.364Z,53.49
2023-05-28T09:45:07.392Z,53.04
2023-05-28T09:46:07.435Z,52.42
2023-05-28T09:47:07.373Z,54.13
2023-05-28T09:48:07.387Z,54.35
2023-05-28T09:49:07.370Z,52.36
2023-05-28T09:50:07.337Z,53.13
2023-05-28T09:51:07.322Z,54.00
2023-05-28T09:52:07.339Z,53.35
2023-05-28T09:53:07.327Z,53.15
2023-05-28T09:54:07.381Z,54.08
2023-05-28T09:55:07.280Z,54.47
2023-05-28T09:56:07.340Z,55.49
2023-05-28T09:57:07.313Z,52.79
2023-05-28T09:58:07.299Z,53.20
2023-05-28T09:59:07.293Z,54.75
2023-05-28T10:00:07.305Z,54.04
2023-05-28T10:01:07.278Z,54.86
2023-05-28T10:02:07.340Z,53.60
2023-05-28T10:03:07.388Z,53.53
2023-05-28T10:04:07.347Z,52.99
2023-05-28T10:05:07.288Z,55.29
2023-05-28T10:06:07.319Z,54.15
2023-05-28T10:07:07.260Z,51.13
2023-05-28T10:08:07.210Z,52.32
2023-05-28T10:09:07.249Z,53.76
2023-05-28T10:10:07.231Z,52.48
2023-05-28T10:11:07.186Z,53.50
2023-05-28T10:12:07.197Z,53.94
2023-05-28T10:13:07.201Z,56.10
2023-05-28T10:14:07.186Z,53.04
2023-05-28T10:15:07.164Z,54.99
2023-05-28T10:16:07.305Z,50.00
2023-05-28T10:17:07.166Z,52.34
2023-05-28T10:18:07.185Z,55.36
2023-05-28T10:19:07.161Z,55.77
2023-05-28T10:20:07.181Z,52.76
2023-05-28T10:21:07.147Z,56.44
2023-05-28T10:22:07.141Z,56.06
2023-05-28T10:23:07.187Z,55.87
2023-05-28T10:24:07.231Z,54.58
2023-05-28T10:25:07.295Z,60.90
2023-05-28T10:26:07.411Z,57.27
2023-05-28T10:27:07.402Z,54.77
2023-05-28T10:28:07.478Z,58.34
2023-05-28T10:29:07.535Z,56.66
2023-05-28T10:30:07.601Z,60.09
2023-05-28T10:31:07.649Z,57.64
2023-05-28T10:32:09.259Z,58.57
2023-05-28T10:33:07.829Z,53.00
2023-05-28T10:34:07.815Z,59.71
2023-05-28T10:35:07.841Z,55.89
2023-05-28T10:36:07.906Z,56.48
2023-05-28T10:37:07.914Z,56.74
2023-05-28T10:38:07.974Z,55.60
2023-05-28T10:39:08.030Z,57.71
2023-05-28T10:40:08.052Z,57.84
2023-05-28T10:41:08.118Z,59.19
2023-05-28T10:42:09.929Z,58.54
2023-05-28T10:43:08.224Z,57.76
2023-05-28T10:44:08.289Z,55.44
2023-05-28T10:45:08.355Z,57.52
2023-05-28T10:46:08.460Z,57.79
2023-05-28T10:47:08.479Z,57.84
2023-05-28T10:48:10.823Z,60.23
2023-05-28T10:49:08.729Z,52.56
2023-05-28T10:50:14.846Z,54.73
2023-05-28T10:51:09.773Z,55.07
2023-05-28T10:52:08.763Z,54.98
2023-05-28T10:53:08.794Z,55.84
2023-05-28T10:54:08.769Z,56.75
2023-05-28T10:55:08.739Z,57.29
2023-05-28T10:56:08.725Z,56.11
2023-05-28T10:57:08.740Z,56.86
2023-05-28T10:58:08.745Z,58.69
2023-05-28T10:59:08.773Z,56.14
2023-05-28T11:00:08.848Z,52.98
2023-05-28T11:01:08.984Z,55.12
2023-05-28T11:02:08.979Z,57.34
2023-05-28T11:03:09.190Z,58.72
2023-05-28T11:04:09.099Z,60.96
2023-05-28T11:05:09.802Z,56.13
2023-05-28T11:06:09.206Z,53.07
2023-05-28T11:07:09.272Z,55.98
2023-05-28T11:08:09.332Z,56.07
2023-05-28T11:09:09.348Z,55.42
2023-05-28T11:10:09.417Z,54.78
2023-05-28T11:11:09.499Z,55.34
2023-05-28T11:12:09.552Z,55.10
2023-05-28T11:13:09.586Z,53.69
2023-05-28T11:14:09.616Z,53.96
2023-05-28T11:15:09.667Z,55.34
2023-05-28T11:16:09.735Z,54.84
2023-05-28T11:17:09.837Z,55.09
2023-05-28T11:18:09.809Z,55.56
2023-05-28T11:19:09.946Z,53.93
2023-05-28T11:20:09.977Z,54.61
2023-05-28T11:21:09.939Z,54.70
2023-05-28T11:22:09.975Z,56.10
2023-05-28T11:23:10.037Z,55.87
2023-05-28T11:24:10.036Z,55.61
2023-05-28T11:25:10.105Z,55.46
2023-05-28T11:26:18.862Z,56.79
2023-05-28T11:27:11.117Z,56.89
2023-05-28T11:28:10.101Z,56.81
2023-05-28T11:29:10.093Z,53.89
2023-05-28T11:30:10.126Z,58.26
2023-05-28T11:31:10.118Z,57.04
2023-05-28T11:32:10.090Z,54.89
2023-05-28T11:33:10.132Z,58.14
2023-05-28T11:34:10.097Z,55.16
2023-05-28T11:35:10.072Z,54.91
2023-05-28T11:36:10.067Z,55.94
2023-05-28T11:37:10.048Z,55.15
2023-05-28T11:38:10.094Z,54.25
2023-05-28T11:39:10.117Z,56.62
2023-05-28T11:40:10.141Z,54.81
2023-05-28T11:41:10.221Z,56.49
2023-05-28T11:42:10.266Z,53.97
2023-05-28T11:43:10.282Z,55.55
2023-05-28T11:44:10.296Z,53.16
2023-05-28T11:45:10.385Z,57.83
2023-05-28T11:46:10.444Z,53.91
2023-05-28T11:47:10.455Z,53.85
2023-05-28T11:48:10.490Z,55.87
2023-05-28T11:49:10.541Z,52.97
2023-05-28T11:50:10.622Z,55.90
2023-05-28T11:51:10.606Z,53.75
2023-05-28T11:52:10.624Z,53.34
2023-05-28T11:53:10.661Z,56.65
2023-05-28T11:54:10.717Z,54.97
2023-05-28T11:55:10.740Z,54.54
2023-05-28T11:56:10.786Z,55.18
2023-05-28T11:57:10.857Z,54.63
2023-05-28T11:58:10.877Z,56.21
2023-05-28T11:59:10.907Z,54.88
2023-05-28T12:00:10.950Z,54.93
2023-05-28T12:01:10.991Z,57.44
2023-05-28T12:02:11.027Z,54.54
2023-05-28T12:03:11.091Z,54.51
2023-05-28T12:04:11.150Z,54.90
2023-05-28T12:05:11.123Z,56.35
2023-05-28T12:06:11.189Z,55.47
2023-05-28T12:07:11.217Z,54.99
2023-05-28T12:08:11.240Z,54.20
2023-05-28T12:09:11.296Z,52.97
2023-05-28T12:10:11.373Z,54.43
2023-05-28T12:11:11.349Z,57.19
2023-05-28T12:12:11.392Z,55.65
2023-05-28T12:13:11.371Z,55.56
2023-05-28T12:14:11.474Z,54.69
2023-05-28T12:15:11.461Z,53.97
2023-05-28T12:16:11.597Z,54.22
2023-05-28T12:17:11.660Z,55.80
2023-05-28T12:18:11.632Z,58.16
2023-05-28T12:19:11.590Z,54.45
2023-05-28T12:20:11.716Z,55.62
2023-05-28T12:21:11.652Z,55.58
2023-05-28T12:22:11.765Z,52.66
2023-05-28T12:23:11.730Z,55.95
2023-05-28T12:24:14.261Z,54.02
2023-05-28T12:25:11.748Z,55.40
2023-05-28T12:26:11.740Z,55.42
2023-05-28T12:27:11.739Z,53.98
2023-05-28T12:28:11.731Z,56.69
2023-05-28T12:29:11.755Z,55.32
2023-05-28T12:30:11.748Z,57.65
2023-05-28T12:31:11.770Z,55.41
2023-05-28T12:32:11.857Z,55.75
2023-05-28T12:33:11.807Z,55.55
2023-05-28T12:34:11.707Z,55.70
2023-05-28T12:35:11.707Z,55.34
2023-05-28T12:36:11.673Z,55.41
2023-05-28T12:37:11.686Z,55.40
2023-05-28T12:38:11.690Z,56.96
2023-05-28T12:39:11.660Z,56.87
2023-05-28T12:40:14.241Z,55.38
2023-05-28T12:41:11.658Z,55.55
2023-05-28T12:42:11.662Z,55.63
2023-05-28T12:43:11.654Z,56.09
2023-05-28T12:44:11.636Z,55.85
2023-05-28T12:45:11.620Z,56.32
2023-05-28T12:46:13.980Z,57.53
2023-05-28T12:47:11.653Z,57.68
2023-05-28T12:48:11.657Z,57.96
2023-05-28T12:49:11.630Z,58.14
2023-05-28T12:50:11.605Z,56.92
2023-05-28T12:51:11.620Z,57.04
2023-05-28T12:52:11.614Z,56.46
2023-05-28T12:53:11.584Z,55.09